createdAt,value
2017-11-08T00:00:10.474Z,8.5
2017-11-08T00:05:15.135Z,8.5
2017-11-08T00:15:25.599Z,8.5
2017-11-08T00:20:07.711Z,8.5
2017-11-08T00:25:05.764Z,8.6
2017-11-08T00:30:20.767Z,8.6
2017-11-08T00:35:07.711Z,8.5
2017-11-08T00:40:20.658Z,8.5
2017-11-08T00:45:03.044Z,8.5
2017-11-08T00:50:05.311Z,8.5
2017-11-08T00:55:02.434Z,8.5
2017-11-08T01:00:20.924Z,8.3
2017-11-08T01:05:15.533Z,8.3
2017-11-08T01:10:05.721Z,8.2
2017-11-08T01:15:20.922Z,8.2
2017-11-08T01:20:08.027Z,8.2
2017-11-08T01:25:22.809Z,8.2
2017-11-08T01:30:18.576Z,8.2
2017-11-08T01:35:18.039Z,8.1
2017-11-08T01:40:23.386Z,8
2017-11-08T01:45:20.827Z,7.9
2017-11-08T01:50:15.508Z,7.8
2017-11-08T01:55:07.449Z,7.7
2017-11-08T02:00:20.881Z,7.7
2017-11-08T02:05:28.018Z,7.6
2017-11-08T02:10:20.776Z,7.5
2017-11-08T02:15:10.559Z,7.5
2017-11-08T02:20:07.699Z,7.4
2017-11-08T02:25:05.610Z,7.4
2017-11-08T02:30:07.866Z,7.3
2017-11-08T02:35:10.925Z,7.3
2017-11-08T02:40:12.624Z,7.3
2017-11-08T02:45:05.000Z,7.2
2017-11-08T02:50:05.705Z,7.3
2017-11-08T02:55:02.658Z,7.3
2017-11-08T03:00:18.496Z,7.2
2017-11-08T03:05:15.524Z,7.2
2017-11-08T03:10:03.376Z,7.2
2017-11-08T03:15:05.594Z,7.1
2017-11-08T03:20:12.982Z,7.1
2017-11-08T03:25:08.356Z,7
2017-11-08T03:30:02.955Z,7
2017-11-08T03:35:07.576Z,7
2017-11-08T03:40:05.242Z,6.9
2017-11-08T03:45:10.288Z,6.9
2017-11-08T03:50:12.579Z,6.9
2017-11-08T03:55:13.067Z,6.9
2017-11-08T04:00:17.788Z,6.9
2017-11-08T04:05:03.217Z,6.9
2017-11-08T04:10:10.016Z,7
2017-11-08T04:15:03.347Z,7
2017-11-08T04:20:05.605Z,7
2017-11-08T04:25:05.105Z,7.1
2017-11-08T04:30:13.419Z,7.1
2017-11-08T04:35:05.283Z,7.2
2017-11-08T04:40:05.526Z,7.2
2017-11-08T04:45:05.504Z,7.2
2017-11-08T04:50:07.791Z,7.2
2017-11-08T04:55:05.694Z,7.2
2017-11-08T05:00:02.928Z,7.1
2017-11-08T05:05:15.026Z,7
2017-11-08T05:10:07.729Z,7
2017-11-08T05:15:05.125Z,7
2017-11-08T05:20:05.812Z,6.9
2017-11-08T05:25:02.769Z,6.9
2017-11-08T05:30:07.444Z,7
2017-11-08T05:35:08.016Z,7.1
2017-11-08T05:40:05.865Z,7.1
2017-11-08T05:45:10.774Z,7.2
2017-11-08T05:50:02.779Z,7.2
2017-11-08T05:55:08.427Z,7.3
2017-11-08T06:00:28.343Z,7.4
2017-11-08T06:05:02.532Z,7.4
2017-11-08T06:10:05.311Z,7.5
2017-11-08T06:15:05.279Z,7.5
2017-11-08T06:20:12.536Z,7.5
2017-11-08T06:25:02.993Z,7.5
2017-11-08T06:30:07.718Z,7.7
2017-11-08T06:35:03.181Z,7.7
2017-11-08T06:40:20.198Z,7.7
2017-11-08T06:45:17.638Z,7.8
2017-11-08T06:50:05.673Z,7.8
2017-11-08T06:55:05.242Z,7.9
2017-11-08T07:05:05.469Z,7.8
2017-11-08T07:10:05.754Z,7.7
2017-11-08T07:15:20.863Z,7.7
2017-11-08T07:20:07.966Z,7.6
2017-11-08T07:25:26.151Z,7.6
2017-11-08T07:30:03.128Z,7.6
2017-11-08T07:35:17.836Z,7.6
2017-11-08T07:40:05.361Z,7.6
2017-11-08T07:45:05.362Z,7.5
2017-11-08T07:50:05.014Z,7.5
2017-11-08T07:55:18.166Z,7.5
2017-11-08T08:00:15.276Z,7.5
2017-11-08T08:05:05.625Z,7.5
2017-11-08T08:10:10.949Z,7.4
2017-11-08T08:15:38.667Z,7.4
2017-11-08T08:20:28.276Z,7.4
2017-11-08T08:25:17.605Z,7.6
2017-11-08T08:30:03.076Z,7.6
2017-11-08T08:35:20.281Z,7.6
2017-11-08T08:45:07.847Z,7.7
2017-11-08T08:50:02.451Z,7.7
2017-11-08T08:55:10.569Z,7.8
2017-11-08T09:00:05.214Z,8
2017-11-08T09:05:02.847Z,7.9
2017-11-08T09:10:32.837Z,8.4
2017-11-08T09:20:31.059Z,8.8
2017-11-08T09:25:20.510Z,8.8
2017-11-08T09:30:07.661Z,8.8
2017-11-08T09:35:23.379Z,8.7
2017-11-08T09:40:07.452Z,8.7
2017-11-08T09:45:20.156Z,8.7
2017-11-08T09:50:05.721Z,8.7
2017-11-08T09:55:05.264Z,8.8
2017-11-08T10:00:15.176Z,8.8
2017-11-08T10:05:20.801Z,8.9
2017-11-08T10:10:04.920Z,8.9
2017-11-08T10:15:32.766Z,8.9
2017-11-08T10:20:05.568Z,8.8
2017-11-08T10:25:30.479Z,8.8
2017-11-08T10:30:16.071Z,8.9
2017-11-08T10:35:18.142Z,9.2
2017-11-08T10:40:10.795Z,9.5
2017-11-08T10:45:10.779Z,9.7
2017-11-08T10:50:20.677Z,9.8
2017-11-08T10:55:02.582Z,9.8
2017-11-08T11:00:23.662Z,9.8
2017-11-08T11:05:05.483Z,9.9
2017-11-08T11:10:05.797Z,9.9
2017-11-08T11:15:10.922Z,10
2017-11-08T11:20:08.209Z,10
2017-11-08T11:25:02.820Z,10
2017-11-08T11:30:07.743Z,10.1
2017-11-08T11:35:08.383Z,10.1
2017-11-08T11:40:02.594Z,10.1
2017-11-08T11:45:02.771Z,10.1
2017-11-08T11:50:07.606Z,10.2
2017-11-08T11:55:08.270Z,10.2
2017-11-08T12:00:30.786Z,10.2
2017-11-08T12:05:07.738Z,10.2
2017-11-08T12:10:15.666Z,10.1
2017-11-08T12:15:18.317Z,10.1
2017-11-08T12:20:05.466Z,10.2
2017-11-08T12:25:07.690Z,10.1
2017-11-08T12:30:06.130Z,10.1
2017-11-08T12:35:03.108Z,10.1
2017-11-08T12:40:07.526Z,10
2017-11-08T12:45:10.213Z,10.1
2017-11-08T12:50:35.290Z,10.3
2017-11-08T12:55:03.011Z,10.3
2017-11-08T13:00:20.540Z,10.8
2017-11-08T13:05:10.157Z,11
2017-11-08T13:10:18.142Z,11.3
2017-11-08T13:15:03.113Z,11.3
2017-11-08T13:20:13.140Z,11.4
2017-11-08T13:25:05.355Z,11.3
2017-11-08T13:30:15.318Z,11.3
2017-11-08T13:35:20.139Z,11.1
2017-11-08T13:40:02.762Z,11.1
2017-11-08T13:45:05.568Z,10.7
2017-11-08T13:50:02.868Z,10.7
2017-11-08T13:55:12.691Z,10.4
2017-11-08T14:00:12.567Z,10.4
2017-11-08T14:05:13.246Z,10.3
2017-11-08T14:10:07.496Z,10.1
2017-11-08T14:15:02.613Z,10.1
2017-11-08T14:20:25.204Z,10
2017-11-08T14:25:03.088Z,10
2017-11-08T14:35:30.388Z,9.8
2017-11-08T14:40:13.046Z,9.7
2017-11-08T14:45:03.065Z,9.7
2017-11-08T14:50:02.906Z,9.7
2017-11-08T14:55:05.092Z,9.4
2017-11-08T15:00:03.376Z,9.3
2017-11-08T15:05:20.713Z,9.1
2017-11-08T15:10:05.844Z,9
2017-11-08T15:15:02.425Z,9
2017-11-08T15:20:08.261Z,8.8
2017-11-08T15:25:02.904Z,8.8
2017-11-08T15:30:30.436Z,8.7
2017-11-08T15:35:05.742Z,8.6
2017-11-08T15:40:02.501Z,8.6
2017-11-08T15:45:12.679Z,8.5
2017-11-08T15:55:10.480Z,8.5
2017-11-08T16:00:20.362Z,8.5
2017-11-08T16:05:26.016Z,8.5
2017-11-08T16:10:22.808Z,8.5
2017-11-08T16:15:17.828Z,8.5
2017-11-08T16:20:08.447Z,8.5
2017-11-08T16:25:03.028Z,8.5
2017-11-08T16:30:38.137Z,8.5
2017-11-08T16:35:16.025Z,8.5
2017-11-08T16:40:07.662Z,8.5
2017-11-08T16:45:17.881Z,8.5
2017-11-08T16:50:17.655Z,8.5
2017-11-08T16:55:13.107Z,8.5
2017-11-08T17:00:05.356Z,8.4
2017-11-08T17:05:16.037Z,8.4
2017-11-08T17:10:05.153Z,8.4
2017-11-08T17:15:02.742Z,8.4
2017-11-08T17:20:05.050Z,8.4
2017-11-08T17:25:05.584Z,8.4
2017-11-08T17:30:20.621Z,8.3
2017-11-08T17:40:30.485Z,8.3
2017-11-08T17:45:12.818Z,8.2
2017-11-08T17:50:02.453Z,8.3
2017-11-08T17:55:10.578Z,8.2
2017-11-08T18:00:05.213Z,8.2
2017-11-08T18:05:03.217Z,8.2
2017-11-08T18:10:05.021Z,8.2
2017-11-08T18:15:02.472Z,8.2
2017-11-08T18:20:10.800Z,8.1
2017-11-08T18:25:10.334Z,8.1
2017-11-08T18:30:20.194Z,8.1
2017-11-08T18:35:30.858Z,8.1
2017-11-08T18:40:18.497Z,8.1
2017-11-08T18:45:18.489Z,8
2017-11-08T18:50:10.574Z,8
2017-11-08T18:55:12.648Z,8
2017-11-08T19:00:05.739Z,8
2017-11-08T19:05:05.258Z,7.9
2017-11-08T19:10:05.484Z,7.9
2017-11-08T19:15:02.873Z,7.9
2017-11-08T19:25:08.192Z,7.9
2017-11-08T19:30:15.488Z,7.9
2017-11-08T19:35:15.049Z,7.9
2017-11-08T19:45:22.855Z,7.8
2017-11-08T19:50:03.277Z,7.8
2017-11-08T19:55:15.501Z,7.8
2017-11-08T20:00:07.578Z,7.8
2017-11-08T20:05:08.161Z,7.7
2017-11-08T20:10:10.997Z,7.8
2017-11-08T20:15:05.841Z,7.8
2017-11-08T20:20:02.992Z,7.8
2017-11-08T20:25:05.063Z,7.8
2017-11-08T20:30:05.724Z,7.8
2017-11-08T20:35:12.849Z,7.7
2017-11-08T20:40:15.567Z,7.7
2017-11-08T20:45:08.011Z,7.7
2017-11-08T20:50:12.687Z,7.7
2017-11-08T20:55:05.578Z,7.7
2017-11-08T21:00:10.451Z,7.7
2017-11-08T21:05:08.340Z,7.7
2017-11-08T21:10:20.255Z,7.6
2017-11-08T21:15:10.094Z,7.6
2017-11-08T21:20:03.149Z,7.6
2017-11-08T21:35:10.410Z,7.6
2017-11-08T21:40:10.742Z,7.6
2017-11-08T21:45:20.785Z,7.6
2017-11-08T21:50:02.676Z,7.6
2017-11-08T21:55:13.342Z,7.6
2017-11-08T22:00:08.011Z,7.6
2017-11-08T22:05:10.038Z,7.2
2017-11-08T22:10:12.797Z,7.6
2017-11-08T22:15:05.224Z,7.6
2017-11-08T22:20:12.535Z,7.5
2017-11-08T22:25:02.902Z,7.5
2017-11-08T22:30:10.224Z,7.5
2017-11-08T22:35:05.652Z,7.5
2017-11-08T22:40:04.958Z,7.4
2017-11-08T22:45:03.353Z,7.5
2017-11-08T22:50:05.693Z,7.4
2017-11-08T22:55:30.409Z,7.4
2017-11-08T23:00:03.349Z,7.4
2017-11-08T23:05:05.370Z,7.4
2017-11-08T23:10:05.577Z,7.4
2017-11-08T23:15:20.690Z,7.3
2017-11-08T23:20:15.384Z,7.3
2017-11-08T23:25:05.670Z,7.3
2017-11-08T23:30:35.711Z,7.3
2017-11-08T23:35:04.973Z,7.4
2017-11-08T23:40:02.614Z,7.3
2017-11-08T23:45:10.158Z,7.3
2017-11-08T23:50:03.266Z,7.3
2017-11-08T23:55:10.328Z,7.2
